createdAt,value
2018-04-07T00:00:13.809Z,0.00
2018-04-07T00:01:13.789Z,0.00
2018-04-07T00:02:13.776Z,0.00
2018-04-07T00:03:13.750Z,0.00
2018-04-07T00:04:13.729Z,0.00
2018-04-07T00:05:13.703Z,0.00
2018-04-07T00:06:13.684Z,0.00
2018-04-07T00:07:13.665Z,0.00
2018-04-07T00:08:13.652Z,0.00
2018-04-07T00:09:13.622Z,0.00
2018-04-07T00:10:13.600Z,0.00
2018-04-07T00:11:13.584Z,0.00
2018-04-07T00:12:13.562Z,0.00
2018-04-07T00:13:13.539Z,0.00
2018-04-07T00:14:13.517Z,0.00
2018-04-07T00:15:13.498Z,0.00
2018-04-07T00:16:13.480Z,0.00
2018-04-07T00:17:13.459Z,0.00
2018-04-07T00:18:13.437Z,0.00
2018-04-07T00:19:13.420Z,0.00
2018-04-07T00:20:13.403Z,0.00
2018-04-07T00:21:13.498Z,0.00
2018-04-07T00:22:13.352Z,0.00
2018-04-07T00:23:13.340Z,0.00
2018-04-07T00:24:13.327Z,0.00
2018-04-07T00:25:13.289Z,0.00
2018-04-07T00:26:13.270Z,0.00
2018-04-07T00:27:13.250Z,0.00
2018-04-07T00:28:13.228Z,0.00
2018-04-07T00:29:13.207Z,0.00
2018-04-07T00:30:13.184Z,0.00
2018-04-07T00:31:13.167Z,0.00
2018-04-07T00:32:13.146Z,0.00
2018-04-07T00:33:13.127Z,0.00
2018-04-07T00:34:13.105Z,0.00
2018-04-07T00:35:13.084Z,0.00
2018-04-07T00:36:13.061Z,0.00
2018-04-07T00:37:13.040Z,0.00
2018-04-07T00:38:13.021Z,0.00
2018-04-07T00:39:12.999Z,0.00
2018-04-07T00:40:12.978Z,0.00
2018-04-07T00:41:12.957Z,0.00
2018-04-07T00:42:12.934Z,0.00
2018-04-07T00:43:13.029Z,0.00
2018-04-07T00:44:12.898Z,0.00
2018-04-07T00:45:12.874Z,0.00
2018-04-07T00:46:12.856Z,0.00
2018-04-07T00:47:12.834Z,0.00
2018-04-07T00:48:12.815Z,0.00
2018-04-07T00:49:12.789Z,0.00
2018-04-07T00:50:12.775Z,0.00
2018-04-07T00:51:12.748Z,0.00
2018-04-07T00:52:12.726Z,0.00
2018-04-07T00:53:12.705Z,0.00
2018-04-07T00:54:12.686Z,0.00
2018-04-07T00:55:12.665Z,0.00
2018-04-07T00:56:12.645Z,0.00
2018-04-07T00:57:12.630Z,0.00
2018-04-07T00:58:12.602Z,0.00
2018-04-07T00:59:12.583Z,0.00
2018-04-07T01:00:12.562Z,0.00
2018-04-07T01:01:12.540Z,0.00
2018-04-07T01:02:12.522Z,0.00
2018-04-07T01:03:12.501Z,0.00
2018-04-07T01:04:12.481Z,0.00
2018-04-07T01:05:12.459Z,0.00
2018-04-07T01:06:12.444Z,0.00
2018-04-07T01:07:12.418Z,0.00
2018-04-07T01:08:12.396Z,0.00
2018-04-07T01:09:12.379Z,0.00
2018-04-07T01:10:12.357Z,0.00
2018-04-07T01:11:12.334Z,0.00
2018-04-07T01:12:12.313Z,0.00
2018-04-07T01:13:12.294Z,0.00
2018-04-07T01:14:12.273Z,0.00
2018-04-07T01:15:12.255Z,0.00
2018-04-07T01:16:12.304Z,0.00
2018-04-07T01:17:12.213Z,0.00
2018-04-07T01:18:12.190Z,0.00
2018-04-07T01:19:12.172Z,0.00
2018-04-07T01:20:12.152Z,0.00
2018-04-07T01:21:12.130Z,0.00
2018-04-07T01:22:12.109Z,0.00
2018-04-07T01:23:12.192Z,0.00
2018-04-07T01:24:12.073Z,0.00
2018-04-07T01:25:12.045Z,0.00
2018-04-07T01:26:12.029Z,0.00
2018-04-07T01:27:12.004Z,0.00
2018-04-07T01:28:11.985Z,0.00
2018-04-07T01:29:11.964Z,0.00
2018-04-07T01:30:11.948Z,0.00
2018-04-07T01:31:11.925Z,0.00
2018-04-07T01:32:11.904Z,0.00
2018-04-07T01:33:11.880Z,0.00
2018-04-07T01:34:11.861Z,0.00
2018-04-07T01:35:11.842Z,0.00
2018-04-07T01:36:11.822Z,0.00
2018-04-07T01:37:11.799Z,0.00
2018-04-07T01:38:11.779Z,0.00
2018-04-07T01:39:11.812Z,0.00
2018-04-07T01:40:11.738Z,0.00
2018-04-07T01:41:11.718Z,0.00
2018-04-07T01:42:11.747Z,0.00
2018-04-07T01:43:11.672Z,0.00
2018-04-07T01:44:11.657Z,0.00
2018-04-07T01:45:11.635Z,0.00
2018-04-07T01:46:11.665Z,0.00
2018-04-07T01:47:11.593Z,0.00
2018-04-07T01:48:11.569Z,0.00
2018-04-07T01:49:11.551Z,0.00
2018-04-07T01:50:11.534Z,0.00
2018-04-07T01:51:11.510Z,0.00
2018-04-07T01:52:11.486Z,0.00
2018-04-07T01:53:11.464Z,0.00
2018-04-07T01:54:11.446Z,0.00
2018-04-07T01:55:11.421Z,0.00
2018-04-07T01:56:11.401Z,0.00
2018-04-07T01:57:11.381Z,0.00
2018-04-07T01:58:11.423Z,0.00
2018-04-07T01:59:11.337Z,0.00
2018-04-07T02:00:11.318Z,0.00
2018-04-07T02:01:11.304Z,0.00
2018-04-07T02:02:11.278Z,0.00
2018-04-07T02:03:11.255Z,0.00
2018-04-07T02:04:11.234Z,0.00
2018-04-07T02:05:11.215Z,0.00
2018-04-07T02:06:11.194Z,0.00
2018-04-07T02:07:11.176Z,0.00
2018-04-07T02:08:11.158Z,0.00
2018-04-07T02:09:11.128Z,0.00
2018-04-07T02:10:11.112Z,0.00
2018-04-07T02:11:11.104Z,0.00
2018-04-07T02:12:11.066Z,0.00
2018-04-07T02:13:11.045Z,0.00
2018-04-07T02:14:11.029Z,0.00
2018-04-07T02:15:11.003Z,0.00
2018-04-07T02:16:10.986Z,0.00
2018-04-07T02:17:10.959Z,0.00
2018-04-07T02:18:10.936Z,0.00
2018-04-07T02:19:10.915Z,0.00
2018-04-07T02:20:10.904Z,0.00
2018-04-07T02:21:10.882Z,0.00
2018-04-07T02:22:10.885Z,0.00
2018-04-07T02:23:10.860Z,0.00
2018-04-07T02:24:10.811Z,0.00
2018-04-07T02:25:10.881Z,0.00
2018-04-07T02:26:10.773Z,0.00
2018-04-07T02:27:10.747Z,0.00
2018-04-07T02:28:10.726Z,0.00
2018-04-07T02:29:10.703Z,0.00
2018-04-07T02:30:10.686Z,0.00
2018-04-07T02:31:10.660Z,0.00
2018-04-07T02:32:10.641Z,0.00
2018-04-07T02:33:10.624Z,0.00
2018-04-07T02:34:10.607Z,0.00
2018-04-07T02:35:10.582Z,0.00
2018-04-07T02:36:10.574Z,0.00
2018-04-07T02:37:10.536Z,0.00
2018-04-07T02:38:10.518Z,0.00
2018-04-07T02:39:10.497Z,0.00
2018-04-07T02:40:10.474Z,0.00
2018-04-07T02:41:10.451Z,0.00
2018-04-07T02:42:10.440Z,0.00
2018-04-07T02:43:10.410Z,0.00
2018-04-07T02:44:10.390Z,0.00
2018-04-07T02:45:10.369Z,0.00
2018-04-07T02:46:10.351Z,0.00
2018-04-07T02:47:10.345Z,0.00
2018-04-07T02:48:10.304Z,0.00
2018-04-07T02:49:10.283Z,0.00
2018-04-07T02:50:10.265Z,0.00
2018-04-07T02:51:10.253Z,0.00
2018-04-07T02:52:10.223Z,0.00
2018-04-07T02:53:10.196Z,0.00
2018-04-07T02:54:10.179Z,0.00
2018-04-07T02:55:10.167Z,0.00
2018-04-07T02:56:10.137Z,0.00
2018-04-07T02:57:10.114Z,0.00
2018-04-07T02:58:10.095Z,0.00
2018-04-07T02:59:10.074Z,0.00
2018-04-07T03:00:10.116Z,0.00
2018-04-07T03:01:10.035Z,0.00
2018-04-07T03:02:10.015Z,0.00
2018-04-07T03:03:09.991Z,0.00
2018-04-07T03:04:09.969Z,0.00
2018-04-07T03:05:09.947Z,0.00
2018-04-07T03:06:09.931Z,0.00
2018-04-07T03:07:09.916Z,0.00
2018-04-07T03:08:09.880Z,0.00
2018-04-07T03:09:09.860Z,0.00
2018-04-07T03:10:09.840Z,0.00
2018-04-07T03:11:09.817Z,0.00
2018-04-07T03:12:09.808Z,0.00
2018-04-07T03:13:09.780Z,0.00
2018-04-07T03:14:09.757Z,0.00
2018-04-07T03:15:09.734Z,0.00
2018-04-07T03:16:09.711Z,0.00
2018-04-07T03:17:09.691Z,0.00
2018-04-07T03:18:09.668Z,0.00
2018-04-07T03:19:09.646Z,0.00
2018-04-07T03:20:09.626Z,0.00
2018-04-07T03:21:09.607Z,0.00
2018-04-07T03:22:09.586Z,0.00
2018-04-07T03:23:09.566Z,0.00
2018-04-07T03:24:09.541Z,0.00
2018-04-07T03:25:09.518Z,0.00
2018-04-07T03:26:09.504Z,0.00
2018-04-07T03:27:09.482Z,0.00
2018-04-07T03:28:09.455Z,0.00
2018-04-07T03:29:09.435Z,0.00
2018-04-07T03:30:09.535Z,0.00
2018-04-07T03:31:09.390Z,0.00
2018-04-07T03:32:09.369Z,0.00
2018-04-07T03:33:09.382Z,0.00
2018-04-07T03:34:09.327Z,0.00
2018-04-07T03:35:09.304Z,0.00
2018-04-07T03:36:09.287Z,0.00
2018-04-07T03:37:09.264Z,0.00
2018-04-07T03:38:09.244Z,0.00
2018-04-07T03:39:09.219Z,0.00
2018-04-07T03:40:09.198Z,0.00
2018-04-07T03:41:09.178Z,0.00
2018-04-07T03:42:09.210Z,0.00
2018-04-07T03:43:09.136Z,0.00
2018-04-07T03:44:09.113Z,0.00
2018-04-07T03:45:09.092Z,0.00
2018-04-07T03:46:09.071Z,0.00
2018-04-07T03:47:09.052Z,0.00
2018-04-07T03:48:09.031Z,0.00
2018-04-07T03:49:09.067Z,0.00
2018-04-07T03:50:08.986Z,0.00
2018-04-07T03:51:08.964Z,0.00
2018-04-07T03:52:08.943Z,0.00
2018-04-07T03:53:08.924Z,0.00
2018-04-07T03:54:08.901Z,0.00
2018-04-07T03:55:08.882Z,0.00
2018-04-07T03:56:08.862Z,0.00
2018-04-07T03:57:08.841Z,0.00
2018-04-07T03:58:08.822Z,0.00
2018-04-07T03:59:08.797Z,0.00
2018-04-07T04:00:08.777Z,0.00
2018-04-07T04:01:08.754Z,0.00
2018-04-07T04:02:08.734Z,0.00
2018-04-07T04:03:08.712Z,0.00
2018-04-07T04:04:08.691Z,0.00
2018-04-07T04:05:08.834Z,0.00
2018-04-07T04:06:08.646Z,0.00
2018-04-07T04:07:08.625Z,0.00
2018-04-07T04:08:08.626Z,0.00
2018-04-07T04:09:08.588Z,0.00
2018-04-07T04:10:08.571Z,0.00
2018-04-07T04:11:08.543Z,0.00
2018-04-07T04:12:08.523Z,0.00
2018-04-07T04:13:08.499Z,0.00
2018-04-07T04:14:08.474Z,0.00
2018-04-07T04:15:08.454Z,0.00
2018-04-07T04:16:08.440Z,0.00
2018-04-07T04:17:08.409Z,0.00
2018-04-07T04:18:08.391Z,0.00
2018-04-07T04:19:08.374Z,0.00
2018-04-07T04:20:08.349Z,0.00
2018-04-07T04:21:08.329Z,0.00
2018-04-07T04:22:08.307Z,0.00
2018-04-07T04:23:08.288Z,0.00
2018-04-07T04:24:08.270Z,0.00
2018-04-07T04:25:08.252Z,0.00
2018-04-07T04:26:08.220Z,0.00
2018-04-07T04:27:08.196Z,0.00
2018-04-07T04:28:08.177Z,0.00
2018-04-07T04:29:08.157Z,0.00
2018-04-07T04:30:08.138Z,0.00
2018-04-07T04:31:08.113Z,0.00
2018-04-07T04:32:08.093Z,0.00
2018-04-07T04:33:08.069Z,0.00
2018-04-07T04:34:08.050Z,0.00
2018-04-07T04:35:08.040Z,0.00
2018-04-07T04:36:08.007Z,0.00
2018-04-07T04:37:07.988Z,0.00
2018-04-07T04:38:07.970Z,0.00
2018-04-07T04:39:07.944Z,5.63
2018-04-07T04:40:07.921Z,5.63
2018-04-07T04:41:07.899Z,5.63
2018-04-07T04:42:07.877Z,5.63
2018-04-07T04:43:07.859Z,5.63
2018-04-07T04:44:07.855Z,5.63
2018-04-07T04:45:07.815Z,5.63
2018-04-07T04:46:07.795Z,5.63
2018-04-07T04:47:07.770Z,5.63
2018-04-07T04:48:07.751Z,11.25
2018-04-07T04:49:07.729Z,11.25
2018-04-07T04:50:07.707Z,11.25
2018-04-07T04:51:07.693Z,11.25
2018-04-07T04:52:07.664Z,16.88
2018-04-07T04:53:07.645Z,16.88
2018-04-07T04:54:07.643Z,16.88
2018-04-07T04:55:07.610Z,22.50
2018-04-07T04:56:07.582Z,22.50
2018-04-07T04:57:07.567Z,28.13
2018-04-07T04:58:07.533Z,33.75
2018-04-07T04:59:07.513Z,33.75
2018-04-07T05:00:07.499Z,39.38
2018-04-07T05:01:07.472Z,39.38
2018-04-07T05:02:07.451Z,45.00
2018-04-07T05:03:07.427Z,50.63
2018-04-07T05:04:07.408Z,50.63
2018-04-07T05:05:07.395Z,56.25
2018-04-07T05:06:07.365Z,56.25
2018-04-07T05:07:07.349Z,61.88
2018-04-07T05:08:07.318Z,61.88
2018-04-07T05:09:07.295Z,61.88
2018-04-07T05:10:07.279Z,67.50
2018-04-07T05:11:07.254Z,67.50
2018-04-07T05:12:07.232Z,73.13
2018-04-07T05:13:07.224Z,73.13
2018-04-07T05:14:07.187Z,78.75
2018-04-07T05:15:07.192Z,84.38
2018-04-07T05:16:07.147Z,84.38
2018-04-07T05:17:07.124Z,90.00
2018-04-07T05:18:07.102Z,90.00
2018-04-07T05:19:07.082Z,95.63
2018-04-07T05:20:07.061Z,101.25
2018-04-07T05:21:07.042Z,101.25
2018-04-07T05:22:07.023Z,106.88
2018-04-07T05:23:06.993Z,112.50
2018-04-07T05:24:06.971Z,112.50
2018-04-07T05:25:06.952Z,118.13
2018-04-07T05:26:06.961Z,123.75
2018-04-07T05:27:06.993Z,129.38
2018-04-07T05:28:06.889Z,135.00
2018-04-07T05:29:06.864Z,140.63
2018-04-07T05:30:06.841Z,140.63
2018-04-07T05:31:06.821Z,146.25
2018-04-07T05:32:06.800Z,151.88
2018-04-07T05:33:06.781Z,157.50
2018-04-07T05:34:06.759Z,163.13
2018-04-07T05:35:06.738Z,168.75
2018-04-07T05:36:06.714Z,174.38
2018-04-07T05:37:06.702Z,180.00
2018-04-07T05:38:06.671Z,180.00
2018-04-07T05:39:06.651Z,185.63
2018-04-07T05:40:06.629Z,191.25
2018-04-07T05:41:06.608Z,196.88
2018-04-07T05:42:06.589Z,202.50
2018-04-07T05:43:06.584Z,202.50
2018-04-07T05:44:06.549Z,208.13
2018-04-07T05:45:06.524Z,213.75
2018-04-07T05:46:06.592Z,219.38
2018-04-07T05:47:06.491Z,219.38
2018-04-07T05:48:06.463Z,225.00
2018-04-07T05:49:06.443Z,225.00
2018-04-07T05:50:06.421Z,230.63
2018-04-07T05:51:06.396Z,236.25
2018-04-07T05:52:06.379Z,247.50
2018-04-07T05:53:06.367Z,241.88
2018-04-07T05:54:06.337Z,247.50
2018-04-07T05:55:06.326Z,247.50
2018-04-07T05:56:06.297Z,247.50
2018-04-07T05:57:06.273Z,253.13
2018-04-07T05:58:06.251Z,253.13
2018-04-07T05:59:06.231Z,258.75
2018-04-07T06:00:06.214Z,264.38
2018-04-07T06:01:06.189Z,270.00
2018-04-07T06:02:06.170Z,275.63
2018-04-07T06:03:06.147Z,286.88
2018-04-07T06:04:06.129Z,303.75
2018-04-07T06:05:06.178Z,337.50
2018-04-07T06:06:06.086Z,483.75
2018-04-07T06:07:06.066Z,590.63
2018-04-07T06:08:06.048Z,855.00
2018-04-07T06:09:06.025Z,978.75
2018-04-07T06:10:06.004Z,810.00
2018-04-07T06:11:05.984Z,978.75
2018-04-07T06:12:05.965Z,1113.75
2018-04-07T06:13:05.944Z,1164.38
2018-04-07T06:14:05.943Z,1209.38
2018-04-07T06:15:05.911Z,1271.25
2018-04-07T06:16:05.887Z,1254.38
2018-04-07T06:17:05.874Z,1361.25
2018-04-07T06:18:05.946Z,1170.00
2018-04-07T06:19:05.830Z,1068.75
2018-04-07T06:20:05.814Z,1389.38
2018-04-07T06:21:05.797Z,1541.25
2018-04-07T06:22:05.783Z,1524.38
2018-04-07T06:23:05.757Z,1479.38
2018-04-07T06:24:05.744Z,1456.88
2018-04-07T06:25:05.737Z,1265.63
2018-04-07T06:26:05.708Z,1018.13
2018-04-07T06:27:05.700Z,1074.38
2018-04-07T06:28:05.680Z,1181.25
2018-04-07T06:29:05.661Z,1490.63
2018-04-07T06:30:05.644Z,1423.13
2018-04-07T06:31:05.632Z,1445.63
2018-04-07T06:32:05.619Z,1350.00
2018-04-07T06:33:05.603Z,1119.38
2018-04-07T06:34:05.585Z,675.00
2018-04-07T06:35:05.574Z,433.13
2018-04-07T06:36:05.556Z,365.63
2018-04-07T06:37:05.541Z,360.00
2018-04-07T06:38:05.529Z,354.38
2018-04-07T06:39:05.530Z,360.00
2018-04-07T06:40:05.507Z,354.38
2018-04-07T06:41:05.493Z,360.00
2018-04-07T06:42:05.471Z,360.00
2018-04-07T06:43:05.456Z,365.63
2018-04-07T06:44:05.441Z,365.63
2018-04-07T06:45:05.428Z,371.25
2018-04-07T06:46:05.451Z,371.25
2018-04-07T06:47:05.400Z,371.25
2018-04-07T06:48:05.392Z,376.88
2018-04-07T06:49:05.366Z,382.50
2018-04-07T06:50:05.350Z,376.88
2018-04-07T06:51:05.336Z,376.88
2018-04-07T06:52:05.405Z,382.50
2018-04-07T06:53:05.310Z,382.50
2018-04-07T06:54:05.289Z,382.50
2018-04-07T06:55:05.301Z,382.50
2018-04-07T06:56:05.254Z,388.13
2018-04-07T06:57:05.238Z,388.13
2018-04-07T06:58:05.221Z,388.13
2018-04-07T06:59:05.210Z,388.13
2018-04-07T07:00:05.201Z,388.13
2018-04-07T07:01:05.175Z,393.75
2018-04-07T07:02:05.167Z,393.75
2018-04-07T07:03:05.141Z,393.75
2018-04-07T07:04:05.194Z,393.75
2018-04-07T07:05:05.116Z,393.75
2018-04-07T07:06:05.088Z,393.75
2018-04-07T07:07:05.080Z,399.38
2018-04-07T07:08:05.059Z,399.38
2018-04-07T07:09:05.037Z,405.00
2018-04-07T07:10:05.023Z,410.63
2018-04-07T07:11:05.011Z,416.25
2018-04-07T07:12:04.986Z,416.25
2018-04-07T07:13:04.988Z,416.25
2018-04-07T07:14:05.050Z,427.50
2018-04-07T07:15:04.933Z,433.13
2018-04-07T07:16:04.927Z,444.38
2018-04-07T07:17:04.896Z,455.63
2018-04-07T07:18:04.896Z,461.25
2018-04-07T07:19:04.862Z,478.13
2018-04-07T07:20:04.847Z,489.38
2018-04-07T07:21:04.843Z,489.38
2018-04-07T07:22:04.830Z,506.25
2018-04-07T07:23:04.792Z,517.50
2018-04-07T07:24:04.772Z,540.00
2018-04-07T07:25:04.755Z,585.00
2018-04-07T07:26:04.741Z,821.25
2018-04-07T07:27:04.721Z,950.63
2018-04-07T07:28:04.707Z,1108.13
2018-04-07T07:29:04.686Z,1231.88
2018-04-07T07:30:04.671Z,1170.00
2018-04-07T07:31:04.655Z,973.13
2018-04-07T07:32:04.646Z,1001.25
2018-04-07T07:33:04.618Z,1091.25
2018-04-07T07:34:04.603Z,1288.13
2018-04-07T07:35:04.603Z,1479.38
2018-04-07T07:36:04.569Z,1563.75
2018-04-07T07:37:04.563Z,1710.00
2018-04-07T07:38:04.646Z,1873.13
2018-04-07T07:39:04.526Z,1828.13
2018-04-07T07:40:04.505Z,1513.13
2018-04-07T07:41:04.534Z,1074.38
2018-04-07T07:42:04.580Z,928.13
2018-04-07T07:43:04.463Z,1046.25
2018-04-07T07:44:04.454Z,1215.00
2018-04-07T07:45:04.432Z,1102.50
2018-04-07T07:46:04.421Z,1282.50
2018-04-07T07:47:04.427Z,1293.75
2018-04-07T07:48:04.387Z,1305.00
2018-04-07T07:49:04.372Z,1260.00
2018-04-07T07:50:04.363Z,1338.75
2018-04-07T07:51:04.352Z,1541.25
2018-04-07T07:52:04.333Z,1760.63
2018-04-07T07:53:04.317Z,1530.00
2018-04-07T07:54:04.309Z,1119.38
2018-04-07T07:55:04.301Z,1170.00
2018-04-07T07:56:04.291Z,1018.13
2018-04-07T07:57:04.268Z,855.00
2018-04-07T07:58:04.257Z,1445.63
2018-04-07T07:59:04.240Z,2081.25
2018-04-07T08:00:04.231Z,2092.50
2018-04-07T08:01:04.213Z,2053.13
2018-04-07T08:02:04.201Z,2165.63
2018-04-07T08:03:04.191Z,2458.13
2018-04-07T08:04:04.316Z,2553.75
2018-04-07T08:05:04.166Z,2379.38
2018-04-07T08:06:04.153Z,2587.50
2018-04-07T08:07:04.152Z,2666.25
2018-04-07T08:08:04.137Z,2227.50
2018-04-07T08:09:04.124Z,2008.13
2018-04-07T08:10:04.115Z,2025.00
2018-04-07T08:11:04.210Z,1456.88
2018-04-07T08:12:04.096Z,877.50
2018-04-07T08:13:04.091Z,1546.88
2018-04-07T08:14:04.074Z,1901.25
2018-04-07T08:15:04.073Z,1861.88
2018-04-07T08:16:04.075Z,1957.50
2018-04-07T08:17:04.047Z,1546.88
2018-04-07T08:18:04.032Z,1732.50
2018-04-07T08:19:04.029Z,2368.13
2018-04-07T08:20:04.017Z,2430.00
2018-04-07T08:21:04.034Z,2896.88
2018-04-07T08:22:03.994Z,2986.88
2018-04-07T08:23:03.988Z,2587.50
2018-04-07T08:24:03.980Z,2452.50
2018-04-07T08:25:03.969Z,2598.75
2018-04-07T08:26:03.958Z,2469.38
2018-04-07T08:27:03.962Z,2283.75
2018-04-07T08:28:03.941Z,1951.88
2018-04-07T08:29:03.935Z,2019.38
2018-04-07T08:30:03.936Z,2019.38
2018-04-07T08:31:03.919Z,1456.88
2018-04-07T08:32:03.958Z,1158.75
2018-04-07T08:33:03.898Z,1243.13
2018-04-07T08:34:03.905Z,1518.75
2018-04-07T08:35:03.884Z,1811.25
2018-04-07T08:36:03.875Z,1423.13
2018-04-07T08:37:03.870Z,1198.13
2018-04-07T08:38:03.856Z,1389.38
2018-04-07T08:39:03.854Z,1873.13
2018-04-07T08:40:03.842Z,2137.50
2018-04-07T08:41:03.831Z,1513.13
2018-04-07T08:42:03.821Z,2126.25
2018-04-07T08:43:03.816Z,2205.00
2018-04-07T08:44:03.806Z,2390.63
2018-04-07T08:45:03.796Z,2480.63
2018-04-07T08:46:03.788Z,2463.75
2018-04-07T08:47:03.783Z,1642.50
2018-04-07T08:48:03.782Z,1783.13
2018-04-07T08:49:03.768Z,2227.50
2018-04-07T08:50:03.867Z,2953.13
2018-04-07T08:51:03.753Z,1665.00
2018-04-07T08:52:03.740Z,2790.00
2018-04-07T08:53:03.731Z,2728.13
2018-04-07T08:54:03.891Z,2508.75
2018-04-07T08:55:03.730Z,2351.25
2018-04-07T08:56:03.709Z,2216.25
2018-04-07T08:57:03.706Z,2120.63
2018-04-07T08:58:03.695Z,2317.50
2018-04-07T08:59:03.689Z,2536.88
2018-04-07T09:00:03.684Z,2503.13
2018-04-07T09:01:03.674Z,2514.38
2018-04-07T09:02:03.675Z,2244.38
2018-04-07T09:03:03.669Z,2469.38
2018-04-07T09:04:03.655Z,3442.50
2018-04-07T09:05:03.649Z,3375.00
2018-04-07T09:06:03.643Z,3442.50
2018-04-07T09:07:03.701Z,3358.13
2018-04-07T09:08:03.634Z,3262.50
2018-04-07T09:09:03.628Z,3459.38
2018-04-07T09:10:03.636Z,3330.00
2018-04-07T09:11:03.624Z,2733.75
2018-04-07T09:12:03.619Z,2053.13
2018-04-07T09:13:03.627Z,2581.88
2018-04-07T09:14:03.612Z,3133.13
2018-04-07T09:15:03.606Z,3391.88
2018-04-07T09:16:03.601Z,3150.00
2018-04-07T09:17:03.596Z,3026.25
2018-04-07T09:18:03.596Z,2885.63
2018-04-07T09:19:03.592Z,3172.50
2018-04-07T09:20:03.592Z,3290.63
2018-04-07T09:21:03.587Z,3313.13
2018-04-07T09:22:03.583Z,3436.88
2018-04-07T09:23:03.582Z,2649.38
2018-04-07T09:24:03.580Z,2508.75
2018-04-07T09:25:03.588Z,2441.25
2018-04-07T09:26:03.574Z,3330.00
2018-04-07T09:27:03.580Z,2891.25
2018-04-07T09:28:03.572Z,3031.88
2018-04-07T09:29:03.570Z,3240.00
2018-04-07T09:30:03.674Z,3296.25
2018-04-07T09:31:03.565Z,3206.25
2018-04-07T09:32:03.563Z,3414.38
2018-04-07T09:33:03.577Z,3571.88
2018-04-07T09:34:03.560Z,3391.88
2018-04-07T09:35:03.562Z,3324.38
2018-04-07T09:36:03.553Z,3386.25
2018-04-07T09:37:03.554Z,3408.75
2018-04-07T09:38:03.554Z,3504.38
2018-04-07T09:39:03.551Z,3757.50
2018-04-07T09:40:03.553Z,3268.13
2018-04-07T09:41:03.552Z,3673.13
2018-04-07T09:42:03.611Z,3695.63
2018-04-07T09:43:03.620Z,3774.38
2018-04-07T09:44:03.544Z,3740.63
2018-04-07T09:45:03.539Z,3616.88
2018-04-07T09:46:03.542Z,3830.63
2018-04-07T09:47:03.540Z,3583.13
2018-04-07T09:48:03.539Z,3780.00
2018-04-07T09:49:03.540Z,4033.13
2018-04-07T09:50:03.539Z,3718.13
2018-04-07T09:51:03.542Z,3735.00
2018-04-07T09:52:03.543Z,3881.25
2018-04-07T09:53:03.544Z,3763.13
2018-04-07T09:54:03.538Z,3751.88
2018-04-07T09:55:03.532Z,3881.25
2018-04-07T09:56:03.534Z,3706.88
2018-04-07T09:57:03.543Z,3825.00
2018-04-07T09:58:03.532Z,3903.75
2018-04-07T09:59:03.536Z,3690.00
2018-04-07T10:00:03.533Z,3498.75
2018-04-07T10:01:03.625Z,3633.75
2018-04-07T10:02:03.540Z,3729.38
2018-04-07T10:03:03.528Z,3639.38
2018-04-07T10:04:03.527Z,3791.25
2018-04-07T10:05:03.527Z,3735.00
2018-04-07T10:06:03.527Z,3706.88
2018-04-07T10:07:03.542Z,3639.38
2018-04-07T10:08:03.527Z,3780.00
2018-04-07T10:09:03.529Z,3600.00
2018-04-07T10:10:03.531Z,3605.63
2018-04-07T10:11:03.539Z,3740.63
2018-04-07T10:12:03.529Z,3746.25
2018-04-07T10:13:03.526Z,3825.00
2018-04-07T10:14:03.521Z,3740.63
2018-04-07T10:15:03.520Z,3791.25
2018-04-07T10:16:03.529Z,3875.63
2018-04-07T10:17:03.519Z,3847.50
2018-04-07T10:18:03.517Z,3903.75
2018-04-07T10:19:03.518Z,3785.63
2018-04-07T10:20:03.526Z,3976.88
2018-04-07T10:21:03.530Z,4033.13
2018-04-07T10:22:03.518Z,3853.13
2018-04-07T10:23:03.524Z,4016.25
2018-04-07T10:24:03.559Z,3971.25
2018-04-07T10:25:03.518Z,3847.50
2018-04-07T10:26:03.516Z,3645.00
2018-04-07T10:27:03.518Z,3375.00
2018-04-07T10:28:03.520Z,3470.63
2018-04-07T10:29:03.522Z,3751.88
2018-04-07T10:30:03.518Z,3504.38
2018-04-07T10:31:03.518Z,3369.38
2018-04-07T10:32:03.517Z,3656.25
2018-04-07T10:33:03.518Z,3110.63
2018-04-07T10:34:03.565Z,3521.25
2018-04-07T10:35:03.522Z,3594.38
2018-04-07T10:36:03.528Z,3487.50
2018-04-07T10:37:03.523Z,3706.88
2018-04-07T10:38:03.522Z,3768.75
2018-04-07T10:39:03.523Z,3706.88
2018-04-07T10:40:03.523Z,4100.63
2018-04-07T10:41:03.524Z,4010.63
2018-04-07T10:42:03.532Z,3768.75
2018-04-07T10:43:03.526Z,3920.63
2018-04-07T10:44:03.524Z,3999.38
2018-04-07T10:45:03.532Z,3937.50
2018-04-07T10:46:03.527Z,3701.25
2018-04-07T10:47:03.554Z,3740.63
2018-04-07T10:48:03.534Z,3566.25
2018-04-07T10:49:03.547Z,3555.00
2018-04-07T10:50:03.545Z,3701.25
2018-04-07T10:51:03.534Z,3588.75
2018-04-07T10:52:03.541Z,3459.38
2018-04-07T10:53:03.539Z,3757.50
2018-04-07T10:54:03.545Z,3138.75
2018-04-07T10:55:03.546Z,3110.63
2018-04-07T10:56:03.558Z,3380.63
2018-04-07T10:57:03.555Z,3459.38
2018-04-07T10:58:03.544Z,3510.00
2018-04-07T10:59:03.554Z,3324.38
2018-04-07T11:00:03.546Z,3481.88
2018-04-07T11:01:03.553Z,3538.13
2018-04-07T11:02:03.562Z,3279.38
2018-04-07T11:03:03.552Z,2722.50
2018-04-07T11:04:03.553Z,2221.88
2018-04-07T11:05:03.604Z,2818.13
2018-04-07T11:06:03.606Z,2970.00
2018-04-07T11:07:03.561Z,2936.25
2018-04-07T11:08:03.570Z,3307.50
2018-04-07T11:09:03.560Z,3341.25
2018-04-07T11:10:03.564Z,3532.50
2018-04-07T11:11:03.569Z,3661.88
2018-04-07T11:12:03.571Z,3605.63
2018-04-07T11:13:03.569Z,3588.75
2018-04-07T11:14:03.571Z,2812.50
2018-04-07T11:15:03.563Z,2936.25
2018-04-07T11:16:03.569Z,3386.25
2018-04-07T11:17:03.580Z,3363.75
2018-04-07T11:18:03.581Z,3391.88
2018-04-07T11:19:03.572Z,3375.00
2018-04-07T11:20:03.568Z,3465.00
2018-04-07T11:21:03.570Z,3391.88
2018-04-07T11:22:03.573Z,3560.63
2018-04-07T11:23:03.575Z,3701.25
2018-04-07T11:24:03.583Z,3684.38
2018-04-07T11:25:03.575Z,3571.88
2018-04-07T11:26:03.578Z,3369.38
2018-04-07T11:27:03.579Z,3521.25
2018-04-07T11:28:03.580Z,3510.00
2018-04-07T11:29:03.585Z,3639.38
2018-04-07T11:30:03.584Z,3549.38
2018-04-07T11:31:03.617Z,3819.38
2018-04-07T11:32:03.587Z,3645.00
2018-04-07T11:33:03.598Z,3403.13
2018-04-07T11:34:03.589Z,3245.63
2018-04-07T11:35:03.593Z,2868.75
2018-04-07T11:36:03.590Z,2981.25
2018-04-07T11:37:03.593Z,3245.63
2018-04-07T11:38:03.604Z,3386.25
2018-04-07T11:39:03.604Z,3493.13
2018-04-07T11:40:03.613Z,3476.25
2018-04-07T11:41:03.622Z,3532.50
2018-04-07T11:42:03.599Z,3487.50
2018-04-07T11:43:03.636Z,3442.50
2018-04-07T11:44:03.600Z,3262.50
2018-04-07T11:45:03.629Z,3262.50
2018-04-07T11:46:03.611Z,3313.13
2018-04-07T11:47:03.606Z,3178.13
2018-04-07T11:48:03.612Z,3324.38
2018-04-07T11:49:03.608Z,3324.38
2018-04-07T11:50:03.605Z,3155.63
2018-04-07T11:51:03.633Z,2323.13
2018-04-07T11:52:03.616Z,990.00
2018-04-07T11:53:03.655Z,579.38
2018-04-07T11:54:03.604Z,534.38
2018-04-07T11:55:03.599Z,506.25
2018-04-07T11:56:03.624Z,489.38
2018-04-07T11:57:03.623Z,472.50
2018-04-07T11:58:03.601Z,455.63
2018-04-07T11:59:03.700Z,450.00
2018-04-07T12:00:03.592Z,444.38
2018-04-07T12:01:03.595Z,433.13
2018-04-07T12:02:03.598Z,427.50
2018-04-07T12:03:03.591Z,410.63
2018-04-07T12:04:03.584Z,399.38
2018-04-07T12:05:03.595Z,405.00
2018-04-07T12:06:03.582Z,399.38
2018-04-07T12:07:03.583Z,388.13
2018-04-07T12:08:03.572Z,388.13
2018-04-07T12:09:03.589Z,382.50
2018-04-07T12:10:03.572Z,376.88
2018-04-07T12:11:03.568Z,376.88
2018-04-07T12:12:03.558Z,376.88
2018-04-07T12:13:03.553Z,371.25
2018-04-07T12:14:03.547Z,376.88
2018-04-07T12:15:03.541Z,382.50
2018-04-07T12:16:03.537Z,393.75
2018-04-07T12:17:03.531Z,405.00
2018-04-07T12:18:03.542Z,410.63
2018-04-07T12:19:03.522Z,410.63
2018-04-07T12:20:03.518Z,416.25
2018-04-07T12:21:03.512Z,416.25
2018-04-07T12:22:03.566Z,416.25
2018-04-07T12:23:03.501Z,410.63
2018-04-07T12:24:03.484Z,410.63
2018-04-07T12:25:03.480Z,399.38
2018-04-07T12:26:03.469Z,399.38
2018-04-07T12:27:03.460Z,399.38
2018-04-07T12:28:03.457Z,399.38
2018-04-07T12:29:03.444Z,399.38
2018-04-07T12:30:03.442Z,399.38
2018-04-07T12:31:03.455Z,393.75
2018-04-07T12:32:03.427Z,388.13
2018-04-07T12:33:03.415Z,388.13
2018-04-07T12:34:03.403Z,388.13
2018-04-07T12:35:03.400Z,371.25
2018-04-07T12:36:03.392Z,360.00
2018-04-07T12:37:03.379Z,354.38
2018-04-07T12:38:03.460Z,354.38